createdAt,value
2023-05-10T00:01:17.903Z,100783.56
2023-05-10T00:03:45.834Z,100780.72
2023-05-10T00:06:13.647Z,100781.69
2023-05-10T00:08:41.419Z,100788.56
2023-05-10T00:11:09.339Z,100784.13
2023-05-10T00:13:37.103Z,100779.59
2023-05-10T00:16:07.116Z,100776.69
2023-05-10T00:18:35.043Z,100781.22
2023-05-10T00:21:02.789Z,100775.00
2023-05-10T00:23:30.561Z,100774.78
2023-05-10T00:25:58.362Z,100780.72
2023-05-10T00:28:26.168Z,100778.94
2023-05-10T00:30:53.970Z,100773.66
2023-05-10T00:33:23.075Z,100778.19
2023-05-10T00:35:51.081Z,100775.81
2023-05-10T00:38:18.861Z,100777.34
2023-05-10T00:40:46.633Z,100779.31
2023-05-10T00:43:22.142Z,100773.00
2023-05-10T00:45:50.571Z,100781.59
2023-05-10T00:48:18.738Z,100776.88
2023-05-10T00:50:47.952Z,100767.91
2023-05-10T00:53:17.026Z,100769.88
2023-05-10T00:55:46.449Z,100771.56
2023-05-10T00:58:15.168Z,100778.56
2023-05-10T01:00:44.442Z,100778.28
2023-05-10T01:03:12.623Z,100777.72
2023-05-10T01:05:40.583Z,100776.97
2023-05-10T01:08:10.583Z,100773.19
2023-05-10T01:10:38.386Z,100778.38
2023-05-10T01:13:06.410Z,100776.88
2023-05-10T01:15:34.651Z,100776.69
2023-05-10T01:18:03.251Z,100782.91
2023-05-10T01:20:37.687Z,100775.34
2023-05-10T01:23:37.963Z,100780.38
2023-05-10T01:26:46.714Z,100782.63
2023-05-10T01:29:27.113Z,100778.84
2023-05-10T01:32:10.454Z,100774.13
2023-05-10T01:34:44.999Z,100780.53
2023-05-10T01:37:17.964Z,100774.78
2023-05-10T01:39:51.873Z,100768.84
2023-05-10T01:42:23.311Z,100774.78
2023-05-10T01:45:00.275Z,100782.53
2023-05-10T01:47:36.435Z,100786.78
2023-05-10T01:50:06.830Z,100791.50
2023-05-10T01:52:38.670Z,100775.84
2023-05-10T01:55:10.068Z,100778.84
2023-05-10T01:57:41.335Z,100782.34
2023-05-10T02:00:11.647Z,100774.88
2023-05-10T02:02:47.720Z,100772.44
2023-05-10T02:05:17.215Z,100779.41
2023-05-10T02:07:46.502Z,100780.94
2023-05-10T02:10:16.517Z,100784.72
2023-05-10T02:12:48.143Z,100783.19
2023-05-10T02:15:21.964Z,100788.66
2023-05-10T02:17:51.537Z,100778.47
2023-05-10T02:20:21.072Z,100788.38
2023-05-10T02:22:51.283Z,100790.09
2023-05-10T02:25:21.445Z,100791.03
2023-05-10T02:27:50.276Z,100795.00
2023-05-10T02:30:19.928Z,100796.22
2023-05-10T02:32:49.185Z,100800.66
2023-05-10T02:35:18.813Z,100802.16
2023-05-10T02:37:47.891Z,100797.63
2023-05-10T02:40:18.412Z,100805.09
2023-05-10T02:42:49.668Z,100803.41
2023-05-10T02:45:19.120Z,100813.41
2023-05-10T02:47:46.965Z,100811.44
2023-05-10T02:50:16.111Z,100805.47
2023-05-10T02:52:49.038Z,100807.00
2023-05-10T02:55:21.615Z,100813.22
2023-05-10T02:57:54.559Z,100809.44
2023-05-10T03:00:22.536Z,100813.59
2023-05-10T03:02:50.313Z,100814.88
2023-05-10T03:05:18.198Z,100811.69
2023-05-10T03:07:47.917Z,100817.31
2023-05-10T03:10:16.145Z,100822.22
2023-05-10T03:13:04.220Z,100820.41
2023-05-10T03:15:39.833Z,100821.06
2023-05-10T03:18:11.703Z,100823.50
2023-05-10T03:20:44.316Z,100827.00
2023-05-10T03:23:25.277Z,100830.97
2023-05-10T03:25:54.290Z,100835.22
2023-05-10T03:28:23.374Z,100831.25
2023-05-10T03:30:51.950Z,100841.91
2023-05-10T03:33:19.782Z,100844.81
2023-05-10T03:35:48.400Z,100836.16
2023-05-10T03:38:18.523Z,100833.72
2023-05-10T03:40:47.432Z,100834.47
2023-05-10T03:43:15.239Z,100830.97
2023-05-10T03:45:43.538Z,100834.16
2023-05-10T03:48:11.594Z,100832.81
2023-05-10T03:50:39.365Z,100829.47
2023-05-10T03:53:07.145Z,100834.19
2023-05-10T03:55:37.356Z,100830.72
2023-05-10T03:58:05.253Z,100830.41
2023-05-10T04:00:34.368Z,100830.91
2023-05-10T04:03:02.492Z,100843.06
2023-05-10T04:05:30.362Z,100834.84
2023-05-10T04:07:58.132Z,100829.66
2023-05-10T04:10:26.013Z,100837.59
2023-05-10T04:12:55.116Z,100834.38
2023-05-10T04:15:23.142Z,100842.41
2023-05-10T04:17:51.314Z,100850.31
2023-05-10T04:20:19.420Z,100842.88
2023-05-10T04:22:47.309Z,100842.13
2023-05-10T04:25:15.191Z,100838.91
2023-05-10T04:27:42.984Z,100842.13
2023-05-10T04:30:12.934Z,100845.34
2023-05-10T04:32:40.714Z,100841.06
2023-05-10T04:35:10.198Z,100843.81
2023-05-10T04:37:38.563Z,100839.88
2023-05-10T04:40:07.699Z,100845.91
2023-05-10T04:42:35.536Z,100841.53
2023-05-10T04:45:03.645Z,100845.75
2023-05-10T04:47:33.593Z,100845.00
2023-05-10T04:50:01.396Z,100848.50
2023-05-10T04:52:29.152Z,100850.78
2023-05-10T04:54:57.034Z,100857.75
2023-05-10T04:57:24.849Z,100857.00
2023-05-10T04:59:52.993Z,100859.72
2023-05-10T05:02:20.768Z,100861.53
2023-05-10T05:04:49.901Z,100862.13
2023-05-10T05:07:17.726Z,100869.56
2023-05-10T05:09:45.607Z,100865.91
2023-05-10T05:12:15.214Z,100872.13
2023-05-10T05:14:43.200Z,100875.16
2023-05-10T05:17:10.985Z,100871.66
2023-05-10T05:19:38.744Z,100871.94
2023-05-10T05:22:08.602Z,100880.75
2023-05-10T05:24:39.010Z,100880.56
2023-05-10T05:27:06.836Z,100879.81
2023-05-10T05:29:34.587Z,100890.75
2023-05-10T05:32:03.196Z,100884.03
2023-05-10T05:34:31.053Z,100892.09
2023-05-10T05:36:58.850Z,100892.38
2023-05-10T05:39:27.965Z,100896.63
2023-05-10T05:41:55.713Z,100887.19
2023-05-10T05:44:23.562Z,100896.16
2023-05-10T05:46:51.359Z,100891.16
2023-05-10T05:49:19.122Z,100896.16
2023-05-10T05:51:46.890Z,100898.91
2023-05-10T05:54:14.691Z,100903.63
2023-05-10T05:56:45.155Z,100901.63
2023-05-10T05:59:13.135Z,100914.09
2023-05-10T06:01:40.895Z,100909.09
2023-05-10T06:04:11.350Z,100911.06
2023-05-10T06:06:39.110Z,100912.00
2023-05-10T06:09:06.927Z,100914.44
2023-05-10T06:11:35.006Z,100919.91
2023-05-10T06:14:05.255Z,100926.94
2023-05-10T06:16:33.337Z,100919.47
2023-05-10T06:19:01.154Z,100917.47
2023-05-10T06:21:28.915Z,100932.41
2023-05-10T06:23:56.673Z,100936.81
2023-05-10T06:26:24.447Z,100932.41
2023-05-10T06:28:52.229Z,100935.59
2023-05-10T06:31:21.922Z,100927.69
2023-05-10T06:33:49.708Z,100929.47
2023-05-10T06:36:17.477Z,100930.50
2023-05-10T06:38:45.275Z,100934.00
2023-05-10T06:41:13.073Z,100934.00
2023-05-10T06:43:42.324Z,100934.50
2023-05-10T06:46:10.316Z,100939.97
2023-05-10T06:48:39.490Z,100940.41
2023-05-10T06:51:07.371Z,100947.69
2023-05-10T06:53:35.164Z,100950.72
2023-05-10T06:56:04.456Z,100954.69
2023-05-10T06:58:33.589Z,100953.94
2023-05-10T07:01:04.907Z,100953.16
2023-05-10T07:03:32.941Z,100950.25
2023-05-10T07:06:06.232Z,100958.03
2023-05-10T07:08:34.328Z,100962.09
2023-05-10T07:11:03.191Z,100962.38
2023-05-10T07:13:32.078Z,100968.91
2023-05-10T07:16:00.306Z,100973.44
2023-05-10T07:18:28.344Z,100971.47
2023-05-10T07:20:56.236Z,100965.81
2023-05-10T07:23:25.442Z,100966.88
2023-05-10T07:25:54.344Z,100973.84
2023-05-10T07:28:22.280Z,100971.84
2023-05-10T07:30:50.144Z,100969.59
2023-05-10T07:33:18.390Z,100982.53
2023-05-10T07:35:46.248Z,100987.53
2023-05-10T07:38:13.999Z,100990.56
2023-05-10T07:40:43.173Z,100995.09
2023-05-10T07:43:10.937Z,100996.16
2023-05-10T07:45:38.756Z,100995.22
2023-05-10T07:48:06.774Z,100999.78
2023-05-10T07:50:34.796Z,101005.84
2023-05-10T07:53:02.559Z,101007.91
2023-05-10T07:55:30.302Z,101008.78
2023-05-10T07:58:01.959Z,101016.06
2023-05-10T08:00:29.770Z,101004.00
2023-05-10T08:02:57.858Z,101010.06
2023-05-10T08:05:25.743Z,101012.59
2023-05-10T08:07:53.504Z,101011.19
2023-05-10T08:10:21.296Z,101016.97
2023-05-10T08:12:49.115Z,101021.97
2023-05-10T08:15:18.759Z,101024.25
2023-05-10T08:17:46.819Z,101026.53
2023-05-10T08:20:17.987Z,101027.56
2023-05-10T08:22:46.454Z,101025.78
2023-05-10T08:25:15.107Z,101030.75
2023-05-10T08:27:43.095Z,101025.28
2023-05-10T08:30:11.593Z,101032.75
2023-05-10T08:32:40.714Z,101035.50
2023-05-10T08:35:08.881Z,101035.50
2023-05-10T08:37:36.668Z,101039.94
2023-05-10T08:40:05.016Z,101048.91
2023-05-10T08:42:37.080Z,101053.63
2023-05-10T08:45:06.572Z,101048.16
2023-05-10T08:47:34.530Z,101059.41
2023-05-10T08:50:05.020Z,101061.19
2023-05-10T08:52:34.962Z,101060.00
2023-05-10T08:55:02.993Z,101062.75
2023-05-10T08:57:30.882Z,101067.28
2023-05-10T08:59:58.625Z,101064.53
2023-05-10T09:02:27.636Z,101072.09
2023-05-10T09:04:55.540Z,101066.91
2023-05-10T09:07:24.869Z,101068.22
2023-05-10T09:09:53.654Z,101072.63
2023-05-10T09:12:21.416Z,101072.25
2023-05-10T09:14:49.825Z,101065.94
2023-05-10T09:17:17.698Z,101068.31
2023-05-10T09:19:47.222Z,101071.69
2023-05-10T09:22:15.165Z,101065.38
2023-05-10T09:24:46.251Z,101071.31
2023-05-10T09:27:15.178Z,101072.06
2023-05-10T09:29:44.459Z,101075.72
2023-05-10T09:32:13.799Z,101065.66
2023-05-10T09:34:42.181Z,101072.81
2023-05-10T09:37:10.075Z,101076.75
2023-05-10T09:39:39.608Z,101076.44
2023-05-10T09:42:10.132Z,101081.88
2023-05-10T09:44:38.996Z,101087.72
2023-05-10T09:47:08.057Z,101099.53
2023-05-10T09:49:36.478Z,101092.09
2023-05-10T09:52:06.124Z,101096.66
2023-05-10T09:54:34.466Z,101095.47
2023-05-10T09:57:02.443Z,101108.88
2023-05-10T09:59:32.067Z,101101.69
2023-05-10T10:02:01.642Z,101104.72
2023-05-10T10:04:31.016Z,101111.19
2023-05-10T10:07:03.774Z,101105.38
2023-05-10T10:09:31.910Z,101109.56
2023-05-10T10:12:01.062Z,101104.97
2023-05-10T10:14:29.161Z,101111.44
2023-05-10T10:19:30.125Z,101115.28
2023-05-10T10:21:58.156Z,101124.75
2023-05-10T10:24:25.930Z,101118.97
2023-05-10T10:26:58.253Z,101115.06
2023-05-10T10:29:32.864Z,101113.81
2023-05-10T10:32:21.047Z,101117.69
2023-05-10T10:34:49.593Z,101125.22
2023-05-10T10:37:17.402Z,101120.72
2023-05-10T10:39:45.158Z,101129.69
2023-05-10T10:42:12.967Z,101129.44
2023-05-10T10:44:42.600Z,101125.44
2023-05-10T10:47:30.006Z,101124.69
2023-05-10T10:50:08.904Z,101124.22
2023-05-10T10:52:37.880Z,101128.72
2023-05-10T10:55:09.189Z,101126.69
2023-05-10T10:57:46.818Z,101124.34
2023-05-10T11:00:28.481Z,101120.09
2023-05-10T11:03:00.482Z,101125.88
2023-05-10T11:05:40.533Z,101126.94
2023-05-10T11:08:14.299Z,101127.78
2023-05-10T11:10:50.863Z,101125.22
2023-05-10T11:13:18.678Z,101130.97
2023-05-10T11:15:51.701Z,101131.22
2023-05-10T11:18:22.197Z,101127.97
2023-05-10T11:20:53.030Z,101128.97
2023-05-10T11:23:22.029Z,101127.66
2023-05-10T11:25:51.194Z,101136.38
2023-05-10T11:28:20.867Z,101138.72
2023-05-10T11:30:49.378Z,101137.75
2023-05-10T11:33:18.564Z,101135.53
2023-05-10T11:35:48.161Z,101133.34
2023-05-10T11:38:16.330Z,101136.41
2023-05-10T11:40:45.379Z,101136.00
2023-05-10T11:43:13.406Z,101137.41
2023-05-10T11:45:43.450Z,101135.88
2023-05-10T11:48:11.380Z,101132.16
2023-05-10T11:50:39.263Z,101134.53
2023-05-10T11:53:08.459Z,101134.84
2023-05-10T11:55:36.341Z,101133.66
2023-05-10T11:58:04.506Z,101137.50
2023-05-10T12:00:33.106Z,101143.53
2023-05-10T12:03:03.734Z,101141.25
2023-05-10T12:05:35.090Z,101145.78
2023-05-10T12:08:17.474Z,101147.31
2023-05-10T12:10:45.300Z,101147.78
2023-05-10T12:13:15.243Z,101148.28
2023-05-10T12:15:43.556Z,101150.28
2023-05-10T12:18:12.567Z,101155.84
2023-05-10T12:20:40.935Z,101147.13
2023-05-10T12:23:11.594Z,101144.13
2023-05-10T12:25:41.165Z,101144.91
2023-05-10T12:30:56.175Z,101143.25
2023-05-10T12:33:23.939Z,101155.31
2023-05-10T12:35:53.523Z,101136.53
2023-05-10T12:38:30.326Z,101146.59
2023-05-10T12:40:59.394Z,101142.63
2023-05-10T12:43:27.335Z,101146.19
2023-05-10T12:45:55.680Z,101155.25
2023-05-10T12:48:23.868Z,101153.00
2023-05-10T12:50:51.608Z,101145.50
2023-05-10T12:53:19.388Z,101155.53
2023-05-10T12:55:47.179Z,101154.84
2023-05-10T12:58:31.579Z,101151.28
2023-05-10T13:01:02.539Z,101154.31
2023-05-10T13:03:30.346Z,101155.81
2023-05-10T13:05:58.197Z,101164.09
2023-05-10T13:08:26.128Z,101159.06
2023-05-10T13:10:54.206Z,101166.59
2023-05-10T13:13:23.298Z,101168.84
2023-05-10T13:15:51.056Z,101175.88
2023-05-10T13:18:18.865Z,101179.59
2023-05-10T13:20:46.778Z,101183.09
2023-05-10T13:23:14.598Z,101176.56
2023-05-10T13:25:42.372Z,101184.06
2023-05-10T13:28:10.109Z,101184.16
2023-05-10T13:30:39.284Z,101195.34
2023-05-10T13:33:07.049Z,101192.72
2023-05-10T13:35:34.911Z,101197.31
2023-05-10T13:38:02.647Z,101197.06
2023-05-10T13:40:30.432Z,101210.03
2023-05-10T13:42:58.201Z,101215.88
2023-05-10T13:45:25.963Z,101210.44
2023-05-10T13:47:55.100Z,101214.03
2023-05-10T13:50:22.863Z,101214.78
2023-05-10T13:52:50.826Z,101213.94
2023-05-10T13:55:18.737Z,101210.63
2023-05-10T13:57:46.817Z,101209.78
2023-05-10T14:00:15.675Z,101212.53
2023-05-10T14:02:43.491Z,101210.47
2023-05-10T14:05:12.911Z,101211.69
2023-05-10T14:07:40.749Z,101215.47
2023-05-10T14:10:09.078Z,101210.53
2023-05-10T14:12:37.170Z,101216.31
2023-05-10T14:15:07.676Z,101212.31
2023-05-10T14:17:35.659Z,101217.66
2023-05-10T14:20:04.727Z,101214.44
2023-05-10T14:22:33.838Z,101222.94
2023-05-10T14:25:01.724Z,101215.19
2023-05-10T14:27:29.593Z,101227.56
2023-05-10T14:29:57.387Z,101222.66
2023-05-10T14:32:25.180Z,101225.28
2023-05-10T14:34:52.927Z,101219.78
2023-05-10T14:37:20.649Z,101223.88
2023-05-10T14:39:49.751Z,101221.63
2023-05-10T14:42:17.738Z,101226.91
2023-05-10T14:44:45.514Z,101221.41
2023-05-10T14:47:13.302Z,101216.22
2023-05-10T14:49:41.788Z,101206.09
2023-05-10T14:52:09.627Z,101207.41
2023-05-10T14:54:37.408Z,101211.66
2023-05-10T14:57:07.404Z,101212.69
2023-05-10T14:59:35.190Z,101216.97
2023-05-10T15:02:04.116Z,101219.22
2023-05-10T15:04:32.455Z,101222.25
2023-05-10T15:07:00.511Z,101224.25
2023-05-10T15:09:28.825Z,101217.53
2023-05-10T15:11:56.908Z,101216.06
2023-05-10T15:14:26.713Z,101216.06
2023-05-10T15:16:54.462Z,101220.91
2023-05-10T15:19:22.239Z,101213.69
2023-05-10T15:21:49.986Z,101208.53
2023-05-10T15:24:17.921Z,101219.41
2023-05-10T15:26:45.737Z,101210.47
2023-05-10T15:29:20.485Z,101212.34
2023-05-10T15:31:50.052Z,101208.44
2023-05-10T15:34:18.751Z,101214.75
2023-05-10T15:36:46.725Z,101212.09
2023-05-10T15:39:14.489Z,101217.88
2023-05-10T15:41:42.242Z,101218.16
2023-05-10T15:44:13.564Z,101219.91
2023-05-10T15:46:41.593Z,101212.97
2023-05-10T15:49:10.794Z,101211.03
2023-05-10T15:51:38.568Z,101219.34
2023-05-10T15:54:11.670Z,101226.44
2023-05-10T15:56:39.528Z,101227.00
2023-05-10T15:59:08.660Z,101229.81
2023-05-10T16:01:36.487Z,101235.59
2023-05-10T16:04:04.719Z,101233.31
2023-05-10T16:06:34.260Z,101228.53
2023-05-10T16:09:14.681Z,101236.66
2023-05-10T16:11:44.140Z,101236.63
2023-05-10T16:14:11.918Z,101241.56
2023-05-10T16:16:40.054Z,101245.84
2023-05-10T16:19:08.097Z,101244.13
2023-05-10T16:21:38.022Z,101242.41
2023-05-10T16:24:06.190Z,101238.66
2023-05-10T16:27:06.163Z,101249.22
2023-05-10T16:29:34.081Z,101244.19
2023-05-10T16:32:02.051Z,101247.91
2023-05-10T16:34:29.851Z,101251.13
2023-05-10T16:36:58.971Z,101254.09
2023-05-10T16:39:26.761Z,101250.81
2023-05-10T16:41:54.538Z,101251.06
2023-05-10T16:44:23.923Z,101259.34
2023-05-10T16:46:54.965Z,101252.06
2023-05-10T16:49:24.499Z,101249.81
2023-05-10T16:51:53.638Z,101247.63
2023-05-10T16:54:22.828Z,101250.66
2023-05-10T16:56:50.714Z,101245.84
2023-05-10T16:59:18.485Z,101258.44
2023-05-10T17:01:47.320Z,101248.94
2023-05-10T17:04:15.507Z,101249.78
2023-05-10T17:06:43.470Z,101252.81
2023-05-10T17:09:12.181Z,101250.53
2023-05-10T17:11:42.122Z,101250.53
2023-05-10T17:14:10.150Z,101252.13
2023-05-10T17:16:37.993Z,101260.38
2023-05-10T17:19:05.905Z,101256.38
2023-05-10T17:21:33.796Z,101260.91
2023-05-10T17:24:01.557Z,101268.22
2023-05-10T17:26:30.088Z,101269.72
2023-05-10T17:29:00.640Z,101272.00
2023-05-10T17:31:28.720Z,101276.75
2023-05-10T17:33:56.550Z,101281.47
2023-05-10T17:36:24.325Z,101280.44
2023-05-10T17:38:52.469Z,101280.69
2023-05-10T17:41:20.310Z,101281.91
2023-05-10T17:43:48.085Z,101285.16
2023-05-10T17:46:17.597Z,101288.09
2023-05-10T17:48:45.446Z,101289.13
2023-05-10T17:51:13.356Z,101287.63
2023-05-10T17:53:41.340Z,101297.03
2023-05-10T17:56:09.617Z,101301.69
2023-05-10T17:58:38.231Z,101300.19
2023-05-10T18:01:06.685Z,101303.66
2023-05-10T18:03:35.972Z,101305.09
2023-05-10T18:06:04.708Z,101306.03
2023-05-10T18:08:33.101Z,101304.81
2023-05-10T18:11:00.923Z,101310.03
2023-05-10T18:13:28.888Z,101305.28
2023-05-10T18:15:56.778Z,101305.28
2023-05-10T18:18:25.291Z,101304.53
2023-05-10T18:20:57.568Z,101304.06
2023-05-10T18:23:25.608Z,101314.56
2023-05-10T18:25:53.726Z,101312.31
2023-05-10T18:28:21.591Z,101305.56
2023-05-10T18:30:49.474Z,101304.81
2023-05-10T18:33:17.314Z,101315.53
2023-05-10T18:35:45.170Z,101312.50
2023-05-10T18:38:14.449Z,101298.00
2023-05-10T18:40:42.442Z,101309.00
2023-05-10T18:43:10.198Z,101309.19
2023-05-10T18:45:39.029Z,101309.69
2023-05-10T18:48:07.805Z,101312.91
2023-05-10T18:50:35.683Z,101314.16
2023-05-10T18:53:04.161Z,101327.53
2023-05-10T18:55:33.443Z,101323.00
2023-05-10T18:58:01.236Z,101324.25
2023-05-10T19:00:29.053Z,101327.00
2023-05-10T19:02:56.909Z,101334.69
2023-05-10T19:05:29.800Z,101328.91
2023-05-10T19:07:57.577Z,101329.38
2023-05-10T19:10:25.650Z,101327.31
2023-05-10T19:12:54.811Z,101331.03
2023-05-10T19:15:22.824Z,101327.69
2023-05-10T19:17:51.624Z,101332.63
2023-05-10T19:20:19.559Z,101343.63
2023-05-10T19:23:02.312Z,101340.06
2023-05-10T19:25:35.379Z,101334.44
2023-05-10T19:28:04.601Z,101339.75
2023-05-10T19:30:32.569Z,101338.19
2023-05-10T19:33:04.346Z,101343.47
2023-05-10T19:35:32.342Z,101344.34
2023-05-10T19:38:00.310Z,101355.78
2023-05-10T19:40:28.091Z,101356.25
2023-05-10T19:42:57.092Z,101359.28
2023-05-10T19:45:26.755Z,101364.34
2023-05-10T19:47:54.760Z,101359.78
2023-05-10T19:50:22.538Z,101364.03
2023-05-10T19:52:50.623Z,101363.75
2023-05-10T19:55:28.357Z,101364.13
2023-05-10T19:57:56.699Z,101363.38
2023-05-10T20:00:27.292Z,101366.22
2023-05-10T20:02:55.753Z,101372.09
2023-05-10T20:05:23.752Z,101368.28
2023-05-10T20:07:51.723Z,101372.44
2023-05-10T20:10:19.766Z,101374.72
2023-05-10T20:12:51.222Z,101376.09
2023-05-10T20:15:20.478Z,101374.09
2023-05-10T20:17:52.057Z,101371.78
2023-05-10T20:20:20.567Z,101366.19
2023-05-10T20:22:49.486Z,101378.47
2023-05-10T20:25:18.541Z,101378.00
2023-05-10T20:27:46.392Z,101383.03
2023-05-10T20:30:14.503Z,101381.88
2023-05-10T20:32:42.341Z,101378.66
2023-05-10T20:35:11.883Z,101381.13
2023-05-10T20:37:39.873Z,101370.91
2023-05-10T20:40:08.635Z,101379.88
2023-05-10T20:42:36.474Z,101391.38
2023-05-10T20:45:04.456Z,101390.31
2023-05-10T20:47:32.463Z,101385.56
2023-05-10T20:50:00.333Z,101386.31
2023-05-10T20:52:29.454Z,101386.63
2023-05-10T20:54:57.224Z,101387.38
2023-05-10T20:57:25.018Z,101385.88
2023-05-10T20:59:52.844Z,101387.38
2023-05-10T21:02:20.584Z,101387.84
2023-05-10T21:04:48.363Z,101388.31
2023-05-10T21:07:16.184Z,101388.78
2023-05-10T21:09:45.388Z,101385.00
2023-05-10T21:12:13.192Z,101383.00
2023-05-10T21:14:42.300Z,101384.69
2023-05-10T21:17:10.286Z,101383.19
2023-05-10T21:19:38.088Z,101380.75
2023-05-10T21:22:06.323Z,101385.44
2023-05-10T21:24:35.027Z,101384.69
2023-05-10T21:27:04.497Z,101379.69
2023-05-10T21:29:32.261Z,101385.81
2023-05-10T21:32:00.031Z,101384.75
2023-05-10T21:34:27.998Z,101375.03
2023-05-10T21:36:55.887Z,101373.97
2023-05-10T21:39:23.637Z,101371.22
2023-05-10T21:41:51.433Z,101369.41
2023-05-10T21:44:21.037Z,101371.09
2023-05-10T21:46:49.018Z,101366.56
2023-05-10T21:49:16.773Z,101370.25
2023-05-10T21:51:44.602Z,101374.97
2023-05-10T21:54:12.448Z,101369.47
2023-05-10T21:56:40.192Z,101365.97
2023-05-10T21:59:07.926Z,101372.69
2023-05-10T22:01:37.090Z,101375.75
2023-05-10T22:04:04.898Z,101376.66
2023-05-10T22:06:33.014Z,101373.66
2023-05-10T22:09:00.862Z,101372.56
2023-05-10T22:11:28.661Z,101377.78
2023-05-10T22:13:56.443Z,101374.75
2023-05-10T22:16:24.243Z,101385.44
2023-05-10T22:18:54.402Z,101385.91
2023-05-10T22:21:22.569Z,101386.66
2023-05-10T22:23:50.366Z,101385.91
2023-05-10T22:26:18.119Z,101378.13
2023-05-10T22:28:45.905Z,101378.59
2023-05-10T22:31:13.714Z,101375.09
2023-05-10T22:33:41.524Z,101386.53
2023-05-10T22:36:10.731Z,101382.75
2023-05-10T22:38:38.571Z,101381.69
2023-05-10T22:41:06.576Z,101381.41
2023-05-10T22:43:34.340Z,101378.34
2023-05-10T22:46:02.177Z,101380.81
2023-05-10T22:48:30.076Z,101388.28
2023-05-10T22:50:57.863Z,101383.44
2023-05-10T22:53:26.964Z,101382.38
2023-05-10T22:55:54.772Z,101387.09
2023-05-10T22:58:22.546Z,101391.22
2023-05-10T23:00:50.404Z,101386.69
2023-05-10T23:03:19.174Z,101393.41
2023-05-10T23:05:46.908Z,101383.06
2023-05-10T23:08:14.744Z,101393.44
2023-05-10T23:10:44.036Z,101389.66
2023-05-10T23:13:11.818Z,101394.09
2023-05-10T23:15:40.164Z,101389.50
2023-05-10T23:18:09.660Z,101393.94
2023-05-10T23:20:37.490Z,101402.16
2023-05-10T23:23:05.256Z,101393.59
2023-05-10T23:25:32.992Z,101402.75
2023-05-10T23:28:02.072Z,101397.59
2023-05-10T23:30:31.362Z,101410.88
2023-05-10T23:32:59.217Z,101403.06
2023-05-10T23:35:27.097Z,101414.50
2023-05-10T23:37:55.044Z,101408.56
2023-05-10T23:40:22.913Z,101398.50
2023-05-10T23:42:50.687Z,101406.75
2023-05-10T23:45:20.014Z,101405.22
2023-05-10T23:47:47.823Z,101402.16
2023-05-10T23:50:15.902Z,101409.19
2023-05-10T23:52:43.739Z,101409.63
2023-05-10T23:55:12.221Z,101405.66
2023-05-10T23:57:40.018Z,101396.84
